createdAt,value
2022-09-11T00:03:42.672Z,12.13
2022-09-11T00:08:44.442Z,11.10
2022-09-11T00:13:48.566Z,11.80
2022-09-11T00:18:50.884Z,11.32
2022-09-11T00:23:53.264Z,12.13
2022-09-11T00:28:55.265Z,11.80
2022-09-11T00:33:56.974Z,11.43
2022-09-11T00:38:58.979Z,11.88
2022-09-11T00:44:12.581Z,10.77
2022-09-11T00:49:14.431Z,10.43
2022-09-11T00:54:20.240Z,12.63
2022-09-11T00:59:26.866Z,12.38
2022-09-11T01:04:29.187Z,12.13
2022-09-11T01:09:33.015Z,12.07
2022-09-11T01:14:52.739Z,11.55
2022-09-11T01:20:23.844Z,11.73
2022-09-11T01:25:46.548Z,12.50
2022-09-11T01:30:54.004Z,13.00
2022-09-11T01:35:58.323Z,12.80
2022-09-11T01:41:16.344Z,12.85
2022-09-11T01:46:22.891Z,11.93
2022-09-11T01:51:29.624Z,13.35
2022-09-11T01:56:37.142Z,12.27
2022-09-11T02:01:44.694Z,13.80
2022-09-11T02:06:53.245Z,13.25
2022-09-11T02:11:57.949Z,15.23
2022-09-11T02:17:33.604Z,14.57
2022-09-11T02:22:36.236Z,14.90
2022-09-11T02:27:37.659Z,13.93
2022-09-11T02:32:43.276Z,16.13
2022-09-11T02:38:05.818Z,17.20
2022-09-11T02:43:28.719Z,17.08
2022-09-11T02:48:53.217Z,17.40
2022-09-11T02:54:25.684Z,18.75
2022-09-11T02:59:34.060Z,18.05
2022-09-11T03:04:36.267Z,17.73
2022-09-11T03:09:37.886Z,17.20
2022-09-11T03:14:39.354Z,16.80
2022-09-11T03:19:40.697Z,18.83
2022-09-11T03:24:42.107Z,17.52
2022-09-11T03:29:44.745Z,18.83
2022-09-11T03:34:47.453Z,18.65
2022-09-11T03:39:48.829Z,18.38
2022-09-11T03:44:50.264Z,19.85
2022-09-11T03:49:51.613Z,17.67
2022-09-11T03:54:52.942Z,16.55
2022-09-11T04:04:57.951Z,17.90
2022-09-11T04:09:59.319Z,18.92
2022-09-11T04:15:02.135Z,18.05
2022-09-11T04:20:04.746Z,17.95
2022-09-11T04:25:06.853Z,18.75
2022-09-11T04:30:08.991Z,18.45
2022-09-11T04:35:10.870Z,17.67
2022-09-11T04:40:12.253Z,18.85
2022-09-11T04:45:13.706Z,17.13
2022-09-11T04:50:15.468Z,17.08
2022-09-11T04:55:16.982Z,17.48
2022-09-11T05:00:18.461Z,18.02
2022-09-11T05:05:20.431Z,17.95
2022-09-11T05:10:21.790Z,18.15
2022-09-11T05:15:23.131Z,16.90
2022-09-11T05:25:25.815Z,16.35
2022-09-11T05:30:29.061Z,17.42
2022-09-11T05:35:32.520Z,18.60
2022-09-11T05:40:33.975Z,17.63
2022-09-11T05:45:35.457Z,17.67
2022-09-11T05:50:37.435Z,17.38
2022-09-11T05:55:38.775Z,17.40
2022-09-11T06:05:42.950Z,17.75
2022-09-11T06:10:48.232Z,17.60
2022-09-11T06:15:49.581Z,17.98
2022-09-11T06:21:10.193Z,18.45
2022-09-11T06:26:14.091Z,17.10
2022-09-11T06:31:17.390Z,18.20
2022-09-11T06:36:24.236Z,16.25
2022-09-11T06:41:27.024Z,17.75
2022-09-11T06:46:28.709Z,17.83
2022-09-11T06:51:30.117Z,16.17
2022-09-11T06:56:34.639Z,16.42
2022-09-11T07:01:36.187Z,16.70
2022-09-11T07:06:38.544Z,15.73
2022-09-11T07:11:43.695Z,16.25
2022-09-11T07:16:46.139Z,17.52
2022-09-11T07:21:47.594Z,17.50
2022-09-11T07:26:48.971Z,18.30
2022-09-11T07:31:50.414Z,16.27
2022-09-11T07:36:52.866Z,15.68
2022-09-11T07:41:54.273Z,15.40
2022-09-11T07:46:55.757Z,14.82
2022-09-11T07:51:57.087Z,14.77
2022-09-11T07:56:58.442Z,14.40
2022-09-11T08:01:59.913Z,16.42
2022-09-11T08:07:01.497Z,13.93
2022-09-11T08:12:03.035Z,13.50
2022-09-11T08:17:04.503Z,14.23
2022-09-11T08:22:05.954Z,14.70
2022-09-11T08:27:07.388Z,13.05
2022-09-11T08:32:08.942Z,13.48
2022-09-11T08:37:10.743Z,15.60
2022-09-11T08:42:16.534Z,13.95
2022-09-11T08:47:24.782Z,13.18
2022-09-11T08:52:27.189Z,13.60
2022-09-11T08:57:52.655Z,14.18
2022-09-11T09:03:21.272Z,13.32
2022-09-11T09:08:47.377Z,13.48
2022-09-11T09:14:10.580Z,13.65
2022-09-11T09:19:20.039Z,13.40
2022-09-11T09:24:22.557Z,12.90
2022-09-11T09:29:30.436Z,12.98
2022-09-11T09:34:37.981Z,14.18
2022-09-11T09:39:39.962Z,13.25
2022-09-11T09:44:50.470Z,14.30
2022-09-11T09:49:52.556Z,13.97
2022-09-11T09:55:01.292Z,13.80
2022-09-11T10:00:07.522Z,13.68
2022-09-11T10:05:41.428Z,13.20
2022-09-11T10:10:42.859Z,13.25
2022-09-11T10:15:44.814Z,13.00
2022-09-11T10:20:46.264Z,14.63
2022-09-11T10:25:49.800Z,18.30
2022-09-11T10:30:59.254Z,14.75
2022-09-11T10:36:05.263Z,16.25
2022-09-11T10:41:21.480Z,17.08
2022-09-11T10:46:24.781Z,17.05
2022-09-11T10:51:29.830Z,15.85
2022-09-11T10:56:36.099Z,15.63
2022-09-11T11:01:37.617Z,17.20
2022-09-11T11:06:45.290Z,19.27
2022-09-11T11:12:23.914Z,16.45
2022-09-11T11:17:55.822Z,17.13
2022-09-11T11:23:05.449Z,19.80
2022-09-11T11:28:26.107Z,17.90
2022-09-11T11:33:39.605Z,17.67
2022-09-11T11:39:13.098Z,18.83
2022-09-11T11:44:21.646Z,17.63
2022-09-11T11:49:33.955Z,16.92
2022-09-11T11:54:52.277Z,17.08
2022-09-11T11:59:53.554Z,16.38
2022-09-11T12:05:03.238Z,15.52
2022-09-11T12:10:07.226Z,16.50
2022-09-11T12:15:17.680Z,16.52
2022-09-11T12:20:34.814Z,17.90
2022-09-11T12:25:36.330Z,15.60
2022-09-11T12:31:14.223Z,17.63
2022-09-11T12:36:42.626Z,15.85
2022-09-11T12:41:45.786Z,15.57
2022-09-11T12:46:47.095Z,17.80
2022-09-11T12:51:58.402Z,15.00
2022-09-11T12:57:04.477Z,15.45
2022-09-11T13:02:28.500Z,14.88
2022-09-11T13:07:42.969Z,15.05
2022-09-11T13:12:55.071Z,15.13
2022-09-11T13:17:56.394Z,15.38
2022-09-11T13:23:18.284Z,14.52
2022-09-11T13:28:24.296Z,14.13
2022-09-11T13:33:29.774Z,14.80
2022-09-11T13:38:36.475Z,14.18
2022-09-11T13:43:44.236Z,15.40
2022-09-11T13:48:49.209Z,18.10
2022-09-11T13:54:05.664Z,14.63
2022-09-11T13:59:25.710Z,15.07
2022-09-11T14:04:29.230Z,15.38
2022-09-11T14:09:30.700Z,16.42
2022-09-11T14:14:33.082Z,18.48
2022-09-11T14:19:36.643Z,18.73
2022-09-11T14:24:38.347Z,13.98
2022-09-11T14:29:40.903Z,13.32
2022-09-11T14:34:42.244Z,14.82
2022-09-11T14:39:47.703Z,12.50
2022-09-11T14:44:49.184Z,13.48
2022-09-11T14:49:53.255Z,12.85
2022-09-11T14:54:56.467Z,11.60
2022-09-11T14:59:59.421Z,12.13
2022-09-11T15:05:00.775Z,10.80
2022-09-11T15:10:02.211Z,10.40
2022-09-11T15:15:04.558Z,10.85
2022-09-11T15:20:09.078Z,8.82
2022-09-11T15:25:11.146Z,9.13
2022-09-11T15:30:12.740Z,8.48
2022-09-11T15:35:18.266Z,8.57
2022-09-11T15:40:20.139Z,8.57
2022-09-11T15:45:21.537Z,7.85
2022-09-11T15:50:28.200Z,6.97
2022-09-11T15:55:30.079Z,8.52
2022-09-11T16:00:31.449Z,6.40
2022-09-11T16:05:38.470Z,7.03
2022-09-11T16:10:39.837Z,6.70
2022-09-11T16:15:41.247Z,7.22
2022-09-11T16:20:43.807Z,7.38
2022-09-11T16:25:45.236Z,7.07
2022-09-11T16:30:51.459Z,6.22
2022-09-11T16:36:01.552Z,6.18
2022-09-11T16:41:07.493Z,5.93
2022-09-11T16:46:09.128Z,6.28
2022-09-11T16:51:12.865Z,6.93
2022-09-11T16:56:20.585Z,7.03
2022-09-11T17:01:25.659Z,7.85
2022-09-11T17:06:29.874Z,6.60
2022-09-11T17:11:32.989Z,7.25
2022-09-11T17:16:35.607Z,6.90
2022-09-11T17:21:37.895Z,6.22
2022-09-11T17:26:39.260Z,6.38
2022-09-11T17:31:40.775Z,6.65
2022-09-11T17:36:43.197Z,6.30
2022-09-11T17:41:44.712Z,6.57
2022-09-11T17:46:46.217Z,6.65
2022-09-11T17:51:48.955Z,6.72
2022-09-11T17:56:51.199Z,6.35
2022-09-11T18:01:53.277Z,6.57
2022-09-11T18:06:55.037Z,6.45
2022-09-11T18:11:56.413Z,6.85
2022-09-11T18:16:58.194Z,7.57
2022-09-11T18:21:59.869Z,6.95
2022-09-11T18:27:01.532Z,7.22
2022-09-11T18:32:03.448Z,7.07
2022-09-11T18:37:05.174Z,6.75
2022-09-11T18:42:07.367Z,8.10
2022-09-11T18:47:08.726Z,7.60
2022-09-11T18:52:10.721Z,7.47
2022-09-11T18:57:12.083Z,8.18
2022-09-11T19:02:13.663Z,8.38
2022-09-11T19:07:15.803Z,8.15
2022-09-11T19:12:17.281Z,8.13
2022-09-11T19:17:18.726Z,9.00
2022-09-11T19:22:22.739Z,9.85
2022-09-11T19:27:26.082Z,9.02
2022-09-11T19:32:28.059Z,8.43
2022-09-11T19:37:29.553Z,8.63
2022-09-11T19:42:30.931Z,8.60
2022-09-11T19:47:33.200Z,10.70
2022-09-11T19:52:35.015Z,11.85
2022-09-11T19:57:36.680Z,10.80
2022-09-11T20:02:40.338Z,11.50
2022-09-11T20:07:41.823Z,9.98
2022-09-11T20:12:43.234Z,10.27
2022-09-11T20:17:44.751Z,10.80
2022-09-11T20:22:46.278Z,11.95
2022-09-11T20:27:47.823Z,11.27
2022-09-11T20:32:49.225Z,11.65
2022-09-11T20:37:52.340Z,12.18
2022-09-11T20:42:53.682Z,12.60
2022-09-11T20:47:55.047Z,13.55
2022-09-11T20:52:57.052Z,13.90
2022-09-11T20:58:00.610Z,11.75
2022-09-11T21:03:02.192Z,13.15
2022-09-11T21:08:04.067Z,12.82
2022-09-11T21:13:05.543Z,12.43
2022-09-11T21:18:06.934Z,12.65
2022-09-11T21:23:08.604Z,12.32
2022-09-11T21:28:10.013Z,13.60
2022-09-11T21:33:11.410Z,15.13
2022-09-11T21:38:12.743Z,15.95
2022-09-11T21:48:15.522Z,14.63
2022-09-11T21:58:20.506Z,15.50
2022-09-11T22:03:22.091Z,16.42
2022-09-11T22:08:24.254Z,13.25
2022-09-11T22:13:25.602Z,16.33
2022-09-11T22:23:30.086Z,15.90
2022-09-11T22:28:31.551Z,15.10
2022-09-11T22:33:33.154Z,15.45
2022-09-11T22:38:34.546Z,17.05
2022-09-11T22:43:36.589Z,17.17
2022-09-11T22:48:38.109Z,17.10
2022-09-11T22:53:39.709Z,16.60
2022-09-11T22:58:41.278Z,17.60
2022-09-11T23:03:42.727Z,19.42
2022-09-11T23:08:45.961Z,16.92
2022-09-11T23:13:48.429Z,18.90
2022-09-11T23:18:57.785Z,18.95
2022-09-11T23:24:00.238Z,18.48
2022-09-11T23:29:01.789Z,17.40
2022-09-11T23:34:06.362Z,17.75
2022-09-11T23:39:07.726Z,17.85
2022-09-11T23:49:11.871Z,17.75
2022-09-11T23:54:13.220Z,18.85
